This is the latest recevied weather packets stored in our database for station/object KC6UTR. If no packets are shown the sender has not sent any weather packets the latest 10 day(s).
| Time | Temp. | Humidity | Pressure | Rain* | Wind** | Luminosity | Snow |
|---|---|---|---|---|---|---|---|
| 1777455616 | 8.89° C | 35% | 1017.5 hPa | 0 mm | - | - | - |
| 1777454416 | 8.89° C | 35% | 1017.1 hPa | 0 mm | - | - | - |
| 1777452615 | 8.89° C | 36% | 1017.1 hPa | 0 mm | - | - | - |
| 1777449015 | 10° C | 33% | 1017.6 hPa | 0 mm | - | - | - |
| 1777448415 | 10° C | 32% | 1017.7 hPa | 0 mm | - | - | - |
| 1777447215 | 10° C | 32% | 1017.9 hPa | 0 mm | - | - | - |
| 1777442416 | 11.67° C | 28% | 1017.7 hPa | 0 mm | - | - | - |
| 1777438216 | 15° C | 23% | 1017.6 hPa | 0 mm | - | - | - |
| 1777436416 | 16.11° C | 21% | 1017.7 hPa | 0 mm | - | - | - |
| 1777432816 | 17.78° C | 18% | 1016.8 hPa | 0 mm | - | - | - |
| 1777431616 | 18.33° C | 18% | 1016.7 hPa | 0 mm | - | - | - |
| 1777430436 | 18.89° C | 18% | 1016.2 hPa | 0 mm | - | - | - |
| 1777429216 | 19.44° C | 17% | 1015.3 hPa | 0 mm | - | - | - |
| 1777423216 | 23.33° C | 14% | 1014.5 hPa | 0 mm | - | - | - |
| 1777420836 | 23.89° C | 13% | 1014.8 hPa | 0 mm | - | - | - |
| 1777418416 | 23.89° C | 14% | 1015 hPa | 0 mm | - | - | - |
| 1777417815 | 24.44° C | 14% | 1015.2 hPa | 0 mm | - | - | - |
| 1777417215 | 23.89° C | 14% | 1015.3 hPa | 0 mm | - | - | - |
| 1777414215 | 23.89° C | 15% | 1015.9 hPa | 0 mm | - | - | - |
| 1777410017 | 22.78° C | 16% | 1016.9 hPa | 0 mm | - | - | - |
| 1777401017 | 21.11° C | 19% | 1018.8 hPa | 0 mm | - | - | - |
| 1777399217 | 19.44° C | 18% | 1019.1 hPa | 0 mm | - | - | - |
| 1777395017 | 16.67° C | 26% | 1019.2 hPa | 0 mm | - | - | - |
| 1777387816 | 12.78° C | 35% | 1018.9 hPa | 0 mm | - | - | - |
| 1777384216 | 8.89° C | 43% | 1017.9 hPa | 0 mm | - | - | - |
* Rain latest hour (hover to see other rain measurements)
** Current wind speed in m/s (hover to see current wind gust speed)